Maersk Weymouth — VRFS9 — position and weather

sailwx.info

Track history (hours):
 
Tides and Currents Weather Stations Pressure Air Temp Water Temp Dewpoint Dewpoint Depression Visibility Wind Speed Wind Dir Waves Ship Positions

Maersk Weymouth

Last reported at 2014-Jul-22 16:29 UTC. Time now 2014-Jul-22 19:48 UTC.
Position N 31°06' W 011°19'.

Length 172 m; draft 9.2 m.

Type: Cargo ship. MMSI: 477622100.

Date/timePositionNaut miles runAvg speedWind from/ knotsBaromVisibWave heightAir tempDewpointWater temp
2014-Jul-22 16:29N 31°06' W 011°19'1413.0
2014-Jul-22 15:24N 31°18' W 011°11'13212.9
2014-Jul-22 05:06N 33°10' W 009°47'1413.7
2014-Jul-22 04:04N 33°19' W 009°34'  
2014-Jul-18 23:31N 37°43' W 009°31'1313.4
2014-Jul-18 22:33N 37°56' W 009°29'1312.6
2014-Jul-18 21:33N 38°09' W 009°27'1312.6
2014-Jul-18 20:33N 38°21' W 009°26'1312.7
2014-Jul-18 19:33N 38°34' W 009°24'1010.0
2014-Jul-18 18:32N 38°41' W 009°15'4 3.6
2014-Jul-18 17:32N 38°42' W 009°10'0 0.0
2014-Jul-18 16:29N 38°42' W 009°10'0 0.0
2014-Jul-18 15:29N 38°42' W 009°10'0 0.0
2014-Jul-18 14:29N 38°42' W 009°10'0 0.0
2014-Jul-18 13:05N 38°42' W 009°10'0 0.0
2014-Jul-18 12:29N 38°42' W 009°10'0 0.0
2014-Jul-18 11:29N 38°42' W 009°10'0 0.0
2014-Jul-18 10:23N 38°42' W 009°10'0 0.0
2014-Jul-18 09:11N 38°42' W 009°10'0 0.0
2014-Jul-18 08:32N 38°42' W 009°10'0 0.0
2014-Jul-18 07:29N 38°42' W 009°10'0 0.0
2014-Jul-18 06:29N 38°42' W 009°10'0 0.0
2014-Jul-18 05:32N 38°42' W 009°10'0 0.0
2014-Jul-18 04:29N 38°42' W 009°10'0 0.0
2014-Jul-18 03:32N 38°42' W 009°10'0 0.0
2014-Jul-18 02:32N 38°42' W 009°10'0 0.0
2014-Jul-18 01:29N 38°42' W 009°10'0 0.0
2014-Jul-18 00:32N 38°42' W 009°10'0 0.0
2014-Jul-17 23:29N 38°42' W 009°10'0 0.0
2014-Jul-17 22:32N 38°42' W 009°10'0 0.0
2014-Jul-17 21:29N 38°42' W 009°10'0 0.0
2014-Jul-17 20:33N 38°42' W 009°10'4 3.8
2014-Jul-17 19:31N 38°41' W 009°15'7 6.9
2014-Jul-17 18:33N 38°37' W 009°22'9 9.2
2014-Jul-17 17:33N 38°29' W 009°29'1313.0
2014-Jul-17 16:33N 38°28' W 009°45'1413.8
2014-Jul-17 15:33N 38°31' W 010°02'1514.7
2014-Jul-17 14:33N 38°45' W 010°06'5517.5
2014-Jul-17 11:26N 39°39' W 009°52'1617.7
2014-Jul-17 10:33N 39°53' W 009°45'1817.5
2014-Jul-17 09:31N 40°10' W 009°38'4217.0
2014-Jul-17 07:03N 40°45' W 009°06'  
2014-Jul-13 03:31N 38°56' W 009°53'7 7.5
2014-Jul-13 02:32N 38°48' W 009°52'8 7.5
2014-Jul-13 01:31N 38°41' W 009°50'7 7.3
2014-Jul-13 00:33N 38°34' W 009°49'7 7.4
2014-Jul-12 23:33N 38°27' W 009°46'7 7.4
2014-Jul-12 22:33N 38°20' W 009°44'7 7.0
2014-Jul-12 21:33N 38°13' W 009°42'7 7.4
2014-Jul-12 20:33N 38°05' W 009°40'7 7.4
2014-Jul-12 19:33N 37°58' W 009°38'7 6.9
2014-Jul-12 18:33N 37°52' W 009°36'6 6.4
2014-Jul-12 17:33N 37°45' W 009°34'6 6.3
2014-Jul-12 16:33N 37°39' W 009°32'  
Track history (hours):
 
Tides and Currents Weather Stations Pressure Air Temp Water Temp Dewpoint Dewpoint Depression Visibility Wind Speed Wind Dir Waves Ship Positions

Maersk Weymouth

Last reported at 2014-Jul-22 16:29 UTC. Time now 2014-Jul-22 19:48 UTC.
Position N 31°06' W 011°19'.

Length 172 m; draft 9.2 m.

Type: Cargo ship. MMSI: 477622100.

Date/timePositionNaut miles runAvg speedWind from/ knotsBaromVisibWave heightAir tempDewpointWater temp
2014-Jul-22 16:29N 31°06' W 011°19'1413.0
2014-Jul-22 15:24N 31°18' W 011°11'13212.9
2014-Jul-22 05:06N 33°10' W 009°47'1413.7
2014-Jul-22 04:04N 33°19' W 009°34'  
2014-Jul-18 23:31N 37°43' W 009°31'1313.4
2014-Jul-18 22:33N 37°56' W 009°29'1312.6
2014-Jul-18 21:33N 38°09' W 009°27'1312.6
2014-Jul-18 20:33N 38°21' W 009°26'1312.7
2014-Jul-18 19:33N 38°34' W 009°24'1010.0
2014-Jul-18 18:32N 38°41' W 009°15'4 3.6
2014-Jul-18 17:32N 38°42' W 009°10'0 0.0
2014-Jul-18 16:29N 38°42' W 009°10'0 0.0
2014-Jul-18 15:29N 38°42' W 009°10'0 0.0
2014-Jul-18 14:29N 38°42' W 009°10'0 0.0
2014-Jul-18 13:05N 38°42' W 009°10'0 0.0
2014-Jul-18 12:29N 38°42' W 009°10'0 0.0
2014-Jul-18 11:29N 38°42' W 009°10'0 0.0
2014-Jul-18 10:23N 38°42' W 009°10'0 0.0
2014-Jul-18 09:11N 38°42' W 009°10'0 0.0
2014-Jul-18 08:32N 38°42' W 009°10'0 0.0
2014-Jul-18 07:29N 38°42' W 009°10'0 0.0
2014-Jul-18 06:29N 38°42' W 009°10'0 0.0
2014-Jul-18 05:32N 38°42' W 009°10'0 0.0
2014-Jul-18 04:29N 38°42' W 009°10'0 0.0
2014-Jul-18 03:32N 38°42' W 009°10'0 0.0
2014-Jul-18 02:32N 38°42' W 009°10'0 0.0
2014-Jul-18 01:29N 38°42' W 009°10'0 0.0
2014-Jul-18 00:32N 38°42' W 009°10'0 0.0
2014-Jul-17 23:29N 38°42' W 009°10'0 0.0
2014-Jul-17 22:32N 38°42' W 009°10'0 0.0
2014-Jul-17 21:29N 38°42' W 009°10'0 0.0
2014-Jul-17 20:33N 38°42' W 009°10'4 3.8
2014-Jul-17 19:31N 38°41' W 009°15'7 6.9
2014-Jul-17 18:33N 38°37' W 009°22'9 9.2
2014-Jul-17 17:33N 38°29' W 009°29'1313.0
2014-Jul-17 16:33N 38°28' W 009°45'1413.8
2014-Jul-17 15:33N 38°31' W 010°02'1514.7
2014-Jul-17 14:33N 38°45' W 010°06'5517.5
2014-Jul-17 11:26N 39°39' W 009°52'1617.7
2014-Jul-17 10:33N 39°53' W 009°45'1817.5
2014-Jul-17 09:31N 40°10' W 009°38'4217.0
2014-Jul-17 07:03N 40°45' W 009°06'  
2014-Jul-13 03:31N 38°56' W 009°53'7 7.5
2014-Jul-13 02:32N 38°48' W 009°52'8 7.5
2014-Jul-13 01:31N 38°41' W 009°50'7 7.3
2014-Jul-13 00:33N 38°34' W 009°49'7 7.4
2014-Jul-12 23:33N 38°27' W 009°46'7 7.4
2014-Jul-12 22:33N 38°20' W 009°44'7 7.0
2014-Jul-12 21:33N 38°13' W 009°42'7 7.4
2014-Jul-12 20:33N 38°05' W 009°40'7 7.4
2014-Jul-12 19:33N 37°58' W 009°38'7 6.9
2014-Jul-12 18:33N 37°52' W 009°36'6 6.4
2014-Jul-12 17:33N 37°45' W 009°34'6 6.3
2014-Jul-12 16:33N 37°39' W 009°32'  

Dump ship's entire track history